createdAt,value
2023-04-06T00:00:37.565Z,11.48
2023-04-06T00:03:04.775Z,13.27
2023-04-06T00:05:32.133Z,12.40
2023-04-06T00:07:59.454Z,10.60
2023-04-06T00:10:27.476Z,15.25
2023-04-06T00:12:57.779Z,11.80
2023-04-06T00:15:24.972Z,16.83
2023-04-06T00:17:52.405Z,15.35
2023-04-06T00:20:19.696Z,11.15
2023-04-06T00:22:46.748Z,17.38
2023-04-06T00:25:13.895Z,14.90
2023-04-06T00:27:40.954Z,11.40
2023-04-06T00:30:08.607Z,17.45
2023-04-06T00:32:37.042Z,14.82
2023-04-06T00:35:05.317Z,13.82
2023-04-06T00:37:32.696Z,9.77
2023-04-06T00:39:59.734Z,11.15
2023-04-06T00:42:27.128Z,10.68
2023-04-06T00:44:59.294Z,10.75
2023-04-06T00:47:26.973Z,15.90
2023-04-06T00:49:55.806Z,15.10
2023-04-06T00:52:23.271Z,11.55
2023-04-06T00:54:51.651Z,10.30
2023-04-06T00:57:19.211Z,12.73
2023-04-06T00:59:46.796Z,14.35
2023-04-06T01:02:14.098Z,11.63
2023-04-06T01:04:41.311Z,12.35
2023-04-06T01:07:08.359Z,11.05
2023-04-06T01:09:35.648Z,11.52
2023-04-06T01:12:03.132Z,11.13
2023-04-06T01:14:30.439Z,11.82
2023-04-06T01:17:00.281Z,15.45
2023-04-06T01:19:27.954Z,10.55
2023-04-06T01:21:55.286Z,12.30
2023-04-06T01:24:23.010Z,11.63
2023-04-06T01:26:50.109Z,11.68
2023-04-06T01:29:17.209Z,13.38
2023-04-06T01:31:44.465Z,16.00
2023-04-06T01:34:11.691Z,17.83
2023-04-06T01:36:38.797Z,15.52
2023-04-06T01:39:06.283Z,14.27
2023-04-06T01:41:33.555Z,11.25
2023-04-06T01:44:00.876Z,14.23
2023-04-06T01:46:28.006Z,10.50
2023-04-06T01:48:55.096Z,10.50
2023-04-06T01:51:22.233Z,16.08
2023-04-06T01:53:50.316Z,9.90
2023-04-06T01:56:17.561Z,14.00
2023-04-06T01:58:44.596Z,10.63
2023-04-06T02:01:11.815Z,9.48
2023-04-06T02:03:38.877Z,10.80
2023-04-06T02:06:06.304Z,12.40
2023-04-06T02:08:33.393Z,11.45
2023-04-06T02:11:00.612Z,9.15
2023-04-06T02:13:28.049Z,16.10
2023-04-06T02:15:55.194Z,11.40
2023-04-06T02:18:22.325Z,11.05
2023-04-06T02:20:49.429Z,11.88
2023-04-06T02:23:16.531Z,13.38
2023-04-06T02:25:43.552Z,10.73
2023-04-06T02:28:10.660Z,11.35
2023-04-06T02:30:37.717Z,9.32
2023-04-06T02:33:04.857Z,12.45
2023-04-06T02:35:32.950Z,9.68
2023-04-06T02:38:00.257Z,16.08
2023-04-06T02:40:27.302Z,9.38
2023-04-06T02:42:54.432Z,9.18
2023-04-06T02:45:21.524Z,17.10
2023-04-06T02:47:48.644Z,15.27
2023-04-06T02:50:16.049Z,9.93
2023-04-06T02:52:43.310Z,13.85
2023-04-06T02:55:10.409Z,10.73
2023-04-06T02:57:37.464Z,14.18
2023-04-06T03:00:05.043Z,10.90
2023-04-06T03:02:32.158Z,16.25
2023-04-06T03:04:59.735Z,11.98
2023-04-06T03:07:26.814Z,16.67
2023-04-06T03:09:53.848Z,10.90
2023-04-06T03:12:21.470Z,10.70
2023-04-06T03:14:48.528Z,11.75
2023-04-06T03:17:15.764Z,10.15
2023-04-06T03:19:42.764Z,10.63
2023-04-06T03:22:09.776Z,11.10
2023-04-06T03:24:36.874Z,14.23
2023-04-06T03:27:03.947Z,10.77
2023-04-06T03:29:31.028Z,12.95
2023-04-06T03:31:58.104Z,14.73
2023-04-06T03:34:25.373Z,10.57
2023-04-06T03:37:03.214Z,13.77
2023-04-06T03:39:37.174Z,13.25
2023-04-06T03:42:04.421Z,13.13
2023-04-06T03:44:31.494Z,23.38
2023-04-06T03:46:59.154Z,12.32
2023-04-06T03:49:26.366Z,12.30
2023-04-06T03:51:53.859Z,11.13
2023-04-06T03:54:20.861Z,11.25
2023-04-06T03:56:47.873Z,10.02
2023-04-06T03:59:15.078Z,17.67
2023-04-06T04:01:42.543Z,9.32
2023-04-06T04:04:09.639Z,15.57
2023-04-06T04:06:37.477Z,11.23
2023-04-06T04:09:04.651Z,11.88
2023-04-06T04:11:31.824Z,18.63
2023-04-06T04:13:59.619Z,13.23
2023-04-06T04:16:26.784Z,11.68
2023-04-06T04:18:53.950Z,12.38
2023-04-06T04:21:21.108Z,10.88
2023-04-06T04:23:48.157Z,17.35
2023-04-06T04:26:15.566Z,9.00
2023-04-06T04:28:42.948Z,13.52
2023-04-06T04:31:10.343Z,11.95
2023-04-06T04:33:37.466Z,13.70
2023-04-06T04:36:04.875Z,13.13
2023-04-06T04:38:32.183Z,13.68
2023-04-06T04:40:59.435Z,13.20
2023-04-06T04:43:26.515Z,14.32
2023-04-06T04:45:53.763Z,12.45
2023-04-06T04:48:20.929Z,13.43
2023-04-06T04:50:48.000Z,11.52
2023-04-06T04:53:15.558Z,10.18
2023-04-06T04:55:42.748Z,13.43
2023-04-06T04:58:12.025Z,11.32
2023-04-06T05:00:39.164Z,10.90
2023-04-06T05:03:07.134Z,9.70
2023-04-06T05:05:34.352Z,11.70
2023-04-06T05:08:01.510Z,12.45
2023-04-06T05:10:28.698Z,13.13
2023-04-06T05:12:55.961Z,11.63
2023-04-06T05:15:23.504Z,13.55
2023-04-06T05:17:52.418Z,12.73
2023-04-06T05:20:19.567Z,13.48
2023-04-06T05:22:46.698Z,15.68
2023-04-06T05:25:14.516Z,16.20
2023-04-06T05:27:42.034Z,14.38
2023-04-06T05:30:09.337Z,16.42
2023-04-06T05:32:36.640Z,14.63
2023-04-06T05:35:04.038Z,13.18
2023-04-06T05:37:31.153Z,12.65
2023-04-06T05:39:58.230Z,16.35
2023-04-06T05:42:25.608Z,14.63
2023-04-06T05:44:52.713Z,18.55
2023-04-06T05:47:19.849Z,15.15
2023-04-06T05:49:46.962Z,12.07
2023-04-06T05:52:14.133Z,14.35
2023-04-06T05:54:41.215Z,18.25
2023-04-06T05:57:08.328Z,17.65
2023-04-06T05:59:35.699Z,14.75
2023-04-06T06:02:04.033Z,14.63
2023-04-06T06:04:34.278Z,18.48
2023-04-06T06:07:01.562Z,18.05
2023-04-06T06:09:28.716Z,15.80
2023-04-06T06:11:56.214Z,13.93
2023-04-06T06:14:23.819Z,16.42
2023-04-06T06:16:53.897Z,18.98
2023-04-06T06:19:21.960Z,17.02
2023-04-06T06:21:49.147Z,18.95
2023-04-06T06:24:16.336Z,15.88
2023-04-06T06:26:44.175Z,20.52
2023-04-06T06:29:11.575Z,19.75
2023-04-06T06:31:38.683Z,17.95
2023-04-06T06:34:06.493Z,20.08
2023-04-06T06:36:33.957Z,16.92
2023-04-06T06:39:04.077Z,13.70
2023-04-06T06:41:31.444Z,12.13
2023-04-06T06:43:58.773Z,26.73
2023-04-06T06:46:26.151Z,17.02
2023-04-06T06:48:53.409Z,13.27
2023-04-06T06:51:20.493Z,17.70
2023-04-06T06:53:47.599Z,17.92
2023-04-06T06:56:14.855Z,16.95
2023-04-06T06:58:42.142Z,17.45
2023-04-06T07:01:09.326Z,15.82
2023-04-06T07:03:36.531Z,16.00
2023-04-06T07:06:04.141Z,19.50
2023-04-06T07:08:31.225Z,15.68
2023-04-06T07:10:58.884Z,29.55
2023-04-06T07:13:28.350Z,20.50
2023-04-06T07:15:55.628Z,19.17
2023-04-06T07:18:23.558Z,16.33
2023-04-06T07:20:50.979Z,19.35
2023-04-06T07:23:18.124Z,17.55
2023-04-06T07:25:45.746Z,16.73
2023-04-06T07:28:12.864Z,16.92
2023-04-06T07:30:39.993Z,20.02
2023-04-06T07:33:07.183Z,21.27
2023-04-06T07:35:35.455Z,24.95
2023-04-06T07:38:03.667Z,17.08
2023-04-06T07:40:33.105Z,24.80
2023-04-06T07:43:00.162Z,16.98
2023-04-06T07:45:27.466Z,14.25
2023-04-06T07:47:54.616Z,21.90
2023-04-06T07:50:22.046Z,13.77
2023-04-06T07:52:49.172Z,18.45
2023-04-06T07:55:16.343Z,19.52
2023-04-06T07:57:43.459Z,20.15
2023-04-06T08:00:11.474Z,19.30
2023-04-06T08:02:38.775Z,16.77
2023-04-06T08:05:06.915Z,20.33
2023-04-06T08:07:34.098Z,20.05
2023-04-06T08:10:01.139Z,23.10
2023-04-06T08:12:28.216Z,19.92
2023-04-06T08:14:55.399Z,19.70
2023-04-06T08:17:23.153Z,20.02
2023-04-06T08:19:50.443Z,16.85
2023-04-06T08:22:17.517Z,19.70
2023-04-06T08:24:44.664Z,29.27
2023-04-06T08:27:11.809Z,16.08
2023-04-06T08:29:38.897Z,17.25
2023-04-06T08:32:07.186Z,21.15
2023-04-06T08:34:34.822Z,20.08
2023-04-06T08:37:02.676Z,18.42
2023-04-06T08:39:32.083Z,21.33
2023-04-06T08:42:00.897Z,26.77
2023-04-06T08:44:28.433Z,19.55
2023-04-06T08:46:56.634Z,20.25
2023-04-06T08:49:24.170Z,21.85
2023-04-06T08:51:51.964Z,22.77
2023-04-06T08:54:19.177Z,23.15
2023-04-06T08:56:46.954Z,23.13
2023-04-06T08:59:14.212Z,22.58
2023-04-06T09:01:43.716Z,21.75
2023-04-06T09:04:13.072Z,24.40
2023-04-06T09:06:41.664Z,23.77
2023-04-06T09:09:09.560Z,20.75
2023-04-06T09:11:51.508Z,20.85
2023-04-06T09:14:35.000Z,19.98
2023-04-06T09:17:04.234Z,19.73
2023-04-06T09:19:31.789Z,21.95
2023-04-06T09:22:08.363Z,20.42
2023-04-06T09:24:48.684Z,24.05
2023-04-06T09:27:16.430Z,23.20
2023-04-06T09:29:44.622Z,25.08
2023-04-06T09:32:12.818Z,27.73
2023-04-06T09:34:40.245Z,30.15
2023-04-06T09:37:17.654Z,30.95
2023-04-06T09:39:46.280Z,24.90
2023-04-06T09:42:33.978Z,22.25
2023-04-06T09:45:01.833Z,29.70
2023-04-06T09:47:31.909Z,20.77
2023-04-06T09:50:00.942Z,31.20
2023-04-06T09:52:33.825Z,25.85
2023-04-06T09:55:05.196Z,21.83
2023-04-06T09:57:50.943Z,23.73
2023-04-06T10:00:23.373Z,23.77
2023-04-06T10:03:07.817Z,22.65
2023-04-06T10:06:03.974Z,33.35
2023-04-06T10:08:33.599Z,24.05
2023-04-06T10:11:02.268Z,25.10
2023-04-06T10:13:29.862Z,26.98
2023-04-06T10:15:58.327Z,26.33
2023-04-06T10:18:26.042Z,27.73
2023-04-06T10:20:57.231Z,25.67
2023-04-06T10:23:42.369Z,28.52
2023-04-06T10:26:15.625Z,23.30
2023-04-06T10:28:44.170Z,22.48
2023-04-06T10:31:11.550Z,22.45
2023-04-06T10:33:38.917Z,16.08
2023-04-06T10:36:16.623Z,22.83
2023-04-06T10:38:43.748Z,19.42
2023-04-06T10:41:12.661Z,22.35
2023-04-06T10:43:41.941Z,21.00
2023-04-06T10:46:10.538Z,15.30
2023-04-06T10:48:41.672Z,14.75
2023-04-06T10:51:16.588Z,16.52
2023-04-06T10:53:48.506Z,16.50
2023-04-06T10:56:17.289Z,11.30
2023-04-06T10:58:57.293Z,14.05
2023-04-06T11:01:27.709Z,10.68
2023-04-06T11:04:00.514Z,10.60
2023-04-06T11:06:30.326Z,9.50
2023-04-06T11:09:06.674Z,11.32
2023-04-06T11:11:33.900Z,9.88
2023-04-06T11:14:02.309Z,12.80
2023-04-06T11:16:32.262Z,8.05
2023-04-06T11:19:05.060Z,7.82
2023-04-06T11:21:40.967Z,6.32
2023-04-06T11:24:12.475Z,6.35
2023-04-06T11:27:20.366Z,8.27
2023-04-06T11:29:39.067Z,6.43
2023-04-06T11:32:07.366Z,9.52
2023-04-06T11:34:37.948Z,7.35
2023-04-06T11:37:09.196Z,6.65
2023-04-06T11:39:49.201Z,5.80
2023-04-06T11:42:23.465Z,8.52
2023-04-06T11:44:53.697Z,7.18
2023-04-06T11:47:21.765Z,9.18
2023-04-06T11:49:49.084Z,8.55
2023-04-06T11:52:20.426Z,6.90
2023-04-06T11:54:49.298Z,13.77
2023-04-06T11:57:17.702Z,9.88
2023-04-06T11:59:45.301Z,7.38
2023-04-06T12:02:12.504Z,6.22
2023-04-06T12:04:40.048Z,6.72
2023-04-06T12:07:07.333Z,7.25
2023-04-06T12:09:37.012Z,10.43
2023-04-06T12:12:04.925Z,6.50
2023-04-06T12:14:32.055Z,8.55
2023-04-06T12:16:59.605Z,7.70
2023-04-06T12:19:27.019Z,5.75
2023-04-06T12:21:58.544Z,9.82
2023-04-06T12:24:25.898Z,9.38
2023-04-06T12:27:02.659Z,6.57
2023-04-06T12:29:30.394Z,7.57
2023-04-06T12:31:57.627Z,10.85
2023-04-06T12:34:24.749Z,8.77
2023-04-06T12:36:52.112Z,8.52
2023-04-06T12:39:21.291Z,7.88
2023-04-06T12:41:48.960Z,10.40
2023-04-06T12:44:16.380Z,9.02
2023-04-06T12:46:44.447Z,8.15
2023-04-06T12:49:12.210Z,12.32
2023-04-06T12:51:39.382Z,10.38
2023-04-06T12:54:07.022Z,7.20
2023-04-06T12:56:34.071Z,8.05
2023-04-06T12:59:01.385Z,9.02
2023-04-06T13:01:29.044Z,8.20
2023-04-06T13:03:57.447Z,9.27
2023-04-06T13:06:28.336Z,10.80
2023-04-06T13:08:56.289Z,8.48
2023-04-06T13:11:26.935Z,6.70
2023-04-06T13:13:54.345Z,9.13
2023-04-06T13:16:22.143Z,10.50
2023-04-06T13:18:49.342Z,7.97
2023-04-06T13:21:17.632Z,9.63
2023-04-06T13:23:45.120Z,9.15
2023-04-06T13:26:14.293Z,9.07
2023-04-06T13:28:42.271Z,12.30
2023-04-06T13:31:10.778Z,9.65
2023-04-06T13:33:38.149Z,8.68
2023-04-06T13:36:07.472Z,8.02
2023-04-06T13:38:34.935Z,9.25
2023-04-06T13:41:02.544Z,7.68
2023-04-06T13:43:29.638Z,7.57
2023-04-06T13:45:57.103Z,9.65
2023-04-06T13:49:00.805Z,12.00
2023-04-06T13:51:28.006Z,7.55
2023-04-06T13:53:56.029Z,10.55
2023-04-06T13:56:23.659Z,12.75
2023-04-06T13:58:50.902Z,8.55
2023-04-06T14:01:18.289Z,8.10
2023-04-06T14:03:48.477Z,8.60
2023-04-06T14:06:29.825Z,11.95
2023-04-06T14:08:59.305Z,9.55
2023-04-06T14:11:27.235Z,8.65
2023-04-06T14:13:56.494Z,12.77
2023-04-06T14:16:25.556Z,8.30
2023-04-06T14:18:53.319Z,13.48
2023-04-06T14:21:20.958Z,10.38
2023-04-06T14:23:48.193Z,8.23
2023-04-06T14:26:16.161Z,14.25
2023-04-06T14:28:43.534Z,12.80
2023-04-06T14:31:13.139Z,9.95
2023-04-06T14:33:40.956Z,7.72
2023-04-06T14:36:09.036Z,12.25
2023-04-06T14:38:36.659Z,12.15
2023-04-06T14:41:03.882Z,11.90
2023-04-06T14:43:31.117Z,10.40
2023-04-06T14:46:02.710Z,12.50
2023-04-06T14:48:29.905Z,10.77
2023-04-06T14:50:57.555Z,11.38
2023-04-06T14:53:25.560Z,14.18
2023-04-06T14:55:53.704Z,15.68
2023-04-06T14:58:22.117Z,9.32
2023-04-06T15:00:49.699Z,13.55
2023-04-06T15:03:17.207Z,10.85
2023-04-06T15:05:44.850Z,10.13
2023-04-06T15:08:12.634Z,15.48
2023-04-06T15:10:39.768Z,10.80
2023-04-06T15:13:06.941Z,11.93
2023-04-06T15:15:34.084Z,10.90
2023-04-06T15:18:03.633Z,11.57
2023-04-06T15:20:31.948Z,10.52
2023-04-06T15:22:59.125Z,11.00
2023-04-06T15:25:26.263Z,18.25
2023-04-06T15:27:54.605Z,10.65
2023-04-06T15:30:22.201Z,12.32
2023-04-06T15:33:02.119Z,11.20
2023-04-06T15:35:29.796Z,9.05
2023-04-06T15:37:57.990Z,11.35
2023-04-06T15:40:25.464Z,10.00
2023-04-06T15:42:52.802Z,12.15
2023-04-06T15:45:19.975Z,11.73
2023-04-06T15:47:47.053Z,10.00
2023-04-06T15:50:14.408Z,9.80
2023-04-06T15:52:41.640Z,11.98
2023-04-06T15:55:09.190Z,10.70
2023-04-06T15:57:36.478Z,11.00
2023-04-06T16:00:07.431Z,12.65
2023-04-06T16:02:35.192Z,14.95
2023-04-06T16:05:04.059Z,14.88
2023-04-06T16:07:33.753Z,12.80
2023-04-06T16:10:01.429Z,11.90
2023-04-06T16:12:29.106Z,15.00
2023-04-06T16:14:56.460Z,12.95
2023-04-06T16:17:25.910Z,10.30
2023-04-06T16:19:56.212Z,12.30
2023-04-06T16:22:24.580Z,13.43
2023-04-06T16:24:51.668Z,15.40
2023-04-06T16:27:18.733Z,13.75
2023-04-06T16:29:46.370Z,13.23
2023-04-06T16:32:13.501Z,13.02
2023-04-06T16:34:40.566Z,12.95
2023-04-06T16:37:07.742Z,14.38
2023-04-06T16:39:35.380Z,19.95
2023-04-06T16:42:24.662Z,11.82
2023-04-06T16:44:52.515Z,11.75
2023-04-06T16:47:19.582Z,14.52
2023-04-06T16:49:46.674Z,15.15
2023-04-06T16:52:13.760Z,12.50
2023-04-06T16:54:41.093Z,16.50
2023-04-06T16:57:08.243Z,15.10
2023-04-06T16:59:36.175Z,11.57
2023-04-06T17:02:03.925Z,11.85
2023-04-06T17:04:31.090Z,11.50
2023-04-06T17:06:58.278Z,13.75
2023-04-06T17:09:25.516Z,12.85
2023-04-06T17:11:52.614Z,10.68
2023-04-06T17:14:19.644Z,18.92
2023-04-06T17:16:46.960Z,11.55
2023-04-06T17:19:14.183Z,14.48
2023-04-06T17:21:44.394Z,11.50
2023-04-06T17:24:12.002Z,10.65
2023-04-06T17:26:40.454Z,12.85
2023-04-06T17:29:07.671Z,11.68
2023-04-06T17:31:35.241Z,9.82
2023-04-06T17:34:03.000Z,12.25
2023-04-06T17:36:30.253Z,16.65
2023-04-06T17:38:57.339Z,12.80
2023-04-06T17:41:24.428Z,12.32
2023-04-06T17:43:52.012Z,10.55
2023-04-06T17:46:21.341Z,11.98
2023-04-06T17:48:48.831Z,19.77
2023-04-06T17:51:18.879Z,12.13
2023-04-06T17:53:46.652Z,17.60
2023-04-06T17:56:13.738Z,17.65
2023-04-06T17:58:41.122Z,11.23
2023-04-06T18:01:11.159Z,13.27
2023-04-06T18:03:38.759Z,12.25
2023-04-06T18:06:16.132Z,14.00
2023-04-06T18:08:43.503Z,16.45
2023-04-06T18:11:18.553Z,21.98
2023-04-06T18:13:45.616Z,14.57
2023-04-06T18:16:12.781Z,15.43
2023-04-06T18:18:40.066Z,12.20
2023-04-06T18:21:07.589Z,16.52
2023-04-06T18:23:36.379Z,11.50
2023-04-06T18:26:05.192Z,11.48
2023-04-06T18:28:33.113Z,13.57
2023-04-06T18:31:00.619Z,11.60
2023-04-06T18:33:27.780Z,12.43
2023-04-06T18:35:56.675Z,12.90
2023-04-06T18:38:24.009Z,13.63
2023-04-06T18:40:52.919Z,11.90
2023-04-06T18:43:20.112Z,15.02
2023-04-06T18:45:47.672Z,17.35
2023-04-06T18:48:14.764Z,15.68
2023-04-06T18:50:52.392Z,12.45
2023-04-06T18:53:19.477Z,14.02
2023-04-06T18:55:46.790Z,13.65
2023-04-06T18:58:13.881Z,15.48
2023-04-06T19:00:41.893Z,15.30
2023-04-06T19:03:09.231Z,13.63
2023-04-06T19:05:36.588Z,15.40
2023-04-06T19:08:05.216Z,14.02
2023-04-06T19:10:34.295Z,14.30
2023-04-06T19:13:01.420Z,16.60
2023-04-06T19:15:28.487Z,16.92
2023-04-06T19:17:55.675Z,16.83
2023-04-06T19:20:22.894Z,16.35
2023-04-06T19:22:50.765Z,15.07
2023-04-06T19:25:18.661Z,15.15
2023-04-06T19:27:45.948Z,17.33
2023-04-06T19:30:13.055Z,15.77
2023-04-06T19:32:41.212Z,14.73
2023-04-06T19:35:08.824Z,14.50
2023-04-06T19:37:37.804Z,14.30
2023-04-06T19:40:10.755Z,18.55
2023-04-06T19:42:38.752Z,14.43
2023-04-06T19:45:06.757Z,15.63
2023-04-06T19:47:35.511Z,15.45
2023-04-06T19:50:04.607Z,15.93
2023-04-06T19:52:32.901Z,15.88
2023-04-06T19:55:00.374Z,15.10
2023-04-06T19:57:27.967Z,18.60
2023-04-06T19:59:58.240Z,15.20
2023-04-06T20:02:25.545Z,16.40
2023-04-06T20:04:53.031Z,14.68
2023-04-06T20:07:20.143Z,15.95
2023-04-06T20:09:47.200Z,16.30
2023-04-06T20:12:14.282Z,16.45
2023-04-06T20:14:41.361Z,15.43
2023-04-06T20:17:08.598Z,16.08
2023-04-06T20:19:36.349Z,14.18
2023-04-06T20:22:06.571Z,19.65
2023-04-06T20:24:33.660Z,13.93
2023-04-06T20:27:01.512Z,16.17
2023-04-06T20:29:29.458Z,15.35
2023-04-06T20:31:58.230Z,17.65
2023-04-06T20:34:28.771Z,17.55
2023-04-06T20:36:56.599Z,17.05
2023-04-06T20:39:24.241Z,20.00
2023-04-06T20:41:52.908Z,16.67
2023-04-06T20:44:21.345Z,19.05
2023-04-06T20:46:49.114Z,15.75
2023-04-06T20:49:16.938Z,18.65
2023-04-06T20:51:45.505Z,20.40
2023-04-06T20:54:12.582Z,19.10
2023-04-06T20:56:39.696Z,20.60
2023-04-06T20:59:06.814Z,15.35
2023-04-06T21:01:34.004Z,20.05
2023-04-06T21:04:04.158Z,18.52
2023-04-06T21:06:32.434Z,18.33
2023-04-06T21:09:00.844Z,17.92
2023-04-06T21:11:27.899Z,20.38
2023-04-06T21:13:54.931Z,19.60
2023-04-06T21:16:22.276Z,20.88
2023-04-06T21:18:49.448Z,22.70
2023-04-06T21:21:16.608Z,19.05
2023-04-06T21:23:43.741Z,19.58
2023-04-06T21:26:13.705Z,24.58
2023-04-06T21:28:40.832Z,22.73
2023-04-06T21:31:11.033Z,22.30
2023-04-06T21:33:38.340Z,23.60
2023-04-06T21:36:06.788Z,22.67
2023-04-06T21:38:37.640Z,44.72
2023-04-06T21:41:05.362Z,31.10
2023-04-06T21:43:32.470Z,25.33
2023-04-06T21:45:59.666Z,24.05
2023-04-06T21:48:26.817Z,28.38
2023-04-06T21:50:54.269Z,25.10
2023-04-06T21:53:21.412Z,29.02
2023-04-06T21:55:48.906Z,27.48
2023-04-06T21:58:16.093Z,29.58
2023-04-06T22:00:43.285Z,29.30
2023-04-06T22:03:10.500Z,31.83
2023-04-06T22:05:38.404Z,34.35
2023-04-06T22:08:06.394Z,32.20
2023-04-06T22:10:33.520Z,34.10
2023-04-06T22:13:00.596Z,35.83
2023-04-06T22:15:27.714Z,34.28
2023-04-06T22:17:55.028Z,33.53
2023-04-06T22:20:22.271Z,34.25
2023-04-06T22:22:50.155Z,37.00
2023-04-06T22:25:17.265Z,33.25
2023-04-06T22:27:44.403Z,35.90
2023-04-06T22:30:11.803Z,37.78
2023-04-06T22:32:38.939Z,37.85
2023-04-06T22:35:06.974Z,38.35
2023-04-06T22:37:34.138Z,32.05
2023-04-06T22:40:01.611Z,38.08
2023-04-06T22:42:29.001Z,38.90
2023-04-06T22:44:56.119Z,35.65
2023-04-06T22:47:23.375Z,37.75
2023-04-06T22:49:50.653Z,37.85
2023-04-06T22:52:17.806Z,38.60
2023-04-06T22:54:45.255Z,36.35
2023-04-06T22:57:12.282Z,37.90
2023-04-06T22:59:39.420Z,40.78
2023-04-06T23:02:07.338Z,35.85
2023-04-06T23:04:34.588Z,34.08
2023-04-06T23:07:02.531Z,36.35
2023-04-06T23:09:29.556Z,38.70
2023-04-06T23:11:56.595Z,33.97
2023-04-06T23:14:23.807Z,33.80
2023-04-06T23:16:51.172Z,33.90
2023-04-06T23:19:18.322Z,26.30
2023-04-06T23:21:45.774Z,33.03
2023-04-06T23:24:12.952Z,29.95
2023-04-06T23:26:40.390Z,28.00
2023-04-06T23:29:07.482Z,26.90
2023-04-06T23:31:34.598Z,28.77
2023-04-06T23:34:02.648Z,26.42
2023-04-06T23:36:30.007Z,23.67
2023-04-06T23:38:57.526Z,30.73
2023-04-06T23:41:24.611Z,26.77
2023-04-06T23:43:52.051Z,26.52
2023-04-06T23:46:19.161Z,23.23
2023-04-06T23:48:46.288Z,18.92
2023-04-06T23:51:13.663Z,21.50
2023-04-06T23:53:41.298Z,21.27
2023-04-06T23:56:09.249Z,22.63
2023-04-06T23:58:36.618Z,27.30
